DTMB

Monastir Habib Bourguiba International Airport

Monastir, Tunisia
METAR DTMB 150030Z 27008KT CAVOK 25/21 Q1013
Observed Flight Rules
Aug-15 @ 00:30 UTC (38 minutes ago) Visual Flight Rules
Wind Visibility Clouds
270° at 8 knots 10,000+ meters
  • Clear skies
Temperatures Readings
Current 25°C / 77°F
Dewpoint 21°C / 70°F
Humidity 79%
Altimeter 29.91" Hg
Pressure 1013 hPa
Elevation 2
METAR DTMB 150030Z 27008KT CAVOK 25/21 Q1013
Observed Flight Rules
Aug-15 @ 00:30 UTC
(38 minutes ago)
VFR
Wind Visibility
270° at 8 knots 10,000+ meters
Clouds
  • Clear skies
Temperature Dewpoint
25°C / 77°F 21°C / 70°F
Humidity Altimeter Pressure
79% 29.91" Hg 1013 hPa